![]() |
EMODnet Physics ERDDAP
Easier access to scientific data |
log in|
Brought to you by EMODnet Physics |
| Dataset Title: | NDBC - Collection of dew point temperature (DEWT) TimeSeries - IN SITU MultiPointTimeSeriesObservation
|
| Institution: | NDBC (Dataset ID: TS_DEWT_NDBC) |
| Information: | Summary
| License
| FGDC
| ISO 19115
| Metadata
| Background
| Subset
| Data Access Form
| Make a graph
|
| Name | Last modified | Size | Description | |
|---|---|---|---|---|
| Parent Directory | - | - | ||
| MLSC1_TS_DEWT_012009.nc | 27-Oct-2024 14:32 | 429909 | ||
| MLSC1_TS_DEWT_012010.nc | 27-Oct-2024 14:32 | 429910 | ||
| MLSC1_TS_DEWT_012011.nc | 27-Oct-2024 14:32 | 418876 | ||
| MLSC1_TS_DEWT_012012.nc | 27-Oct-2024 14:32 | 429680 | ||
| MLSC1_TS_DEWT_012013.nc | 27-Oct-2024 14:32 | 429908 | ||
| MLSC1_TS_DEWT_012016.nc | 27-Oct-2024 14:32 | 1265602 | ||
| MLSC1_TS_DEWT_012019.nc | 27-Oct-2024 14:32 | 1154926 | ||
| MLSC1_TS_DEWT_012020.nc | 27-Oct-2024 14:32 | 1262171 | ||
| MLSC1_TS_DEWT_012021.nc | 27-Oct-2024 14:32 | 1260963 | ||
| MLSC1_TS_DEWT_012022.nc | 27-Oct-2024 14:32 | 1143265 | ||
| MLSC1_TS_DEWT_012023.nc | 27-Oct-2024 14:32 | 1261449 | ||
| MLSC1_TS_DEWT_012024.nc | 27-Oct-2024 14:32 | 1025994 | ||
| MLSC1_TS_DEWT_012025.nc | 07-Feb-2025 11:26 | 1247815 | ||
| MLSC1_TS_DEWT_012026.nc | 17-Feb-2026 05:31 | 1266037 | ||
| MLSC1_TS_DEWT_022009.nc | 27-Oct-2024 14:32 | 1238475 | ||
| MLSC1_TS_DEWT_022010.nc | 27-Oct-2024 14:32 | 429678 | ||
| MLSC1_TS_DEWT_022011.nc | 27-Oct-2024 14:32 | 429687 | ||
| MLSC1_TS_DEWT_022012.nc | 27-Oct-2024 14:33 | 429685 | ||
| MLSC1_TS_DEWT_022013.nc | 27-Oct-2024 14:33 | 429692 | ||
| MLSC1_TS_DEWT_022016.nc | 27-Oct-2024 14:33 | 429700 | ||
| MLSC1_TS_DEWT_022019.nc | 27-Oct-2024 14:33 | 427808 | ||
| MLSC1_TS_DEWT_022020.nc | 27-Oct-2024 14:33 | 429692 | ||
| MLSC1_TS_DEWT_022021.nc | 27-Oct-2024 14:33 | 429693 | ||
| MLSC1_TS_DEWT_022022.nc | 27-Oct-2024 14:33 | 424569 | ||
| MLSC1_TS_DEWT_022023.nc | 27-Oct-2024 14:33 | 429893 | ||
| MLSC1_TS_DEWT_022024.nc | 16-Sep-2024 16:51 | 429913 | ||
| MLSC1_TS_DEWT_022025.nc | 28-Feb-2025 06:37 | 429731 | ||
| MLSC1_TS_DEWT_022026.nc | 01-Mar-2026 06:59 | 429921 | ||
| MLSC1_TS_DEWT_032009.nc | 27-Oct-2024 14:33 | 429905 | ||
| MLSC1_TS_DEWT_032010.nc | 27-Oct-2024 14:33 | 429887 | ||
| MLSC1_TS_DEWT_032011.nc | 27-Oct-2024 14:33 | 429677 | ||
| MLSC1_TS_DEWT_032012.nc | 27-Oct-2024 14:33 | 429895 | ||
| MLSC1_TS_DEWT_032013.nc | 27-Oct-2024 14:33 | 428925 | ||
| MLSC1_TS_DEWT_032016.nc | 27-Oct-2024 14:33 | 429910 | ||
| MLSC1_TS_DEWT_032019.nc | 27-Oct-2024 14:33 | 429910 | ||
| MLSC1_TS_DEWT_032020.nc | 27-Oct-2024 14:33 | 429911 | ||
| MLSC1_TS_DEWT_032021.nc | 27-Oct-2024 14:33 | 429911 | ||
| MLSC1_TS_DEWT_032022.nc | 27-Oct-2024 14:33 | 429809 | ||
| MLSC1_TS_DEWT_032023.nc | 27-Oct-2024 14:33 | 429908 | ||
| MLSC1_TS_DEWT_032025.nc | 02-Apr-2025 04:42 | 429915 | ||
| MLSC1_TS_DEWT_032026.nc | 21-Mar-2026 07:46 | 427545 | ||
| MLSC1_TS_DEWT_042009.nc | 27-Oct-2024 14:33 | 3199963 | ||
| MLSC1_TS_DEWT_042010.nc | 27-Oct-2024 14:34 | 429023 | ||
| MLSC1_TS_DEWT_042011.nc | 27-Oct-2024 14:34 | 428689 | ||
| MLSC1_TS_DEWT_042012.nc | 27-Oct-2024 14:34 | 428691 | ||
| MLSC1_TS_DEWT_042013.nc | 27-Oct-2024 14:34 | 428689 | ||
| MLSC1_TS_DEWT_042016.nc | 27-Oct-2024 14:34 | 429035 | ||
| MLSC1_TS_DEWT_042019.nc | 27-Oct-2024 14:34 | 428389 | ||
| MLSC1_TS_DEWT_042020.nc | 27-Oct-2024 14:34 | 428689 | ||
| MLSC1_TS_DEWT_042022.nc | 27-Oct-2024 14:34 | 428884 | ||
| MLSC1_TS_DEWT_042023.nc | 27-Oct-2024 14:34 | 428885 | ||
| MLSC1_TS_DEWT_042025.nc | 01-May-2025 06:23 | 428867 | ||
| MLSC1_TS_DEWT_052009.nc | 27-Oct-2024 14:34 | 429231 | ||
| MLSC1_TS_DEWT_052010.nc | 27-Oct-2024 14:34 | 428880 | ||
| MLSC1_TS_DEWT_052012.nc | 27-Oct-2024 14:34 | 423873 | ||
| MLSC1_TS_DEWT_052013.nc | 27-Oct-2024 14:34 | 421828 | ||
| MLSC1_TS_DEWT_052016.nc | 27-Oct-2024 14:34 | 428880 | ||
| MLSC1_TS_DEWT_052019.nc | 27-Oct-2024 14:34 | 427052 | ||
| MLSC1_TS_DEWT_052020.nc | 27-Oct-2024 14:34 | 428882 | ||
| MLSC1_TS_DEWT_052021.nc | 27-Oct-2024 14:35 | 428890 | ||
| MLSC1_TS_DEWT_052022.nc | 27-Oct-2024 14:35 | 428879 | ||
| MLSC1_TS_DEWT_052023.nc | 27-Oct-2024 14:35 | 428885 | ||
| MLSC1_TS_DEWT_052025.nc | 01-Jun-2025 06:58 | 428883 | ||
| MLSC1_TS_DEWT_062009.nc | 27-Oct-2024 14:35 | 429224 | ||
| MLSC1_TS_DEWT_062010.nc | 27-Oct-2024 14:35 | 428886 | ||
| MLSC1_TS_DEWT_062011.nc | 27-Oct-2024 14:35 | 418876 | ||
| MLSC1_TS_DEWT_062012.nc | 27-Oct-2024 14:35 | 4595014 | ||
| MLSC1_TS_DEWT_062013.nc | 27-Oct-2024 14:35 | 429693 | ||
| MLSC1_TS_DEWT_062016.nc | 27-Oct-2024 14:35 | 429699 | ||
| MLSC1_TS_DEWT_062019.nc | 27-Oct-2024 14:35 | 429686 | ||
| MLSC1_TS_DEWT_062020.nc | 27-Oct-2024 14:35 | 429687 | ||
| MLSC1_TS_DEWT_062021.nc | 27-Oct-2024 14:35 | 429676 | ||
| MLSC1_TS_DEWT_062022.nc | 27-Oct-2024 14:35 | 429687 | ||
| MLSC1_TS_DEWT_062023.nc | 27-Oct-2024 14:35 | 429687 | ||
| MLSC1_TS_DEWT_062025.nc | 01-Jul-2025 06:03 | 429693 | ||
| MLSC1_TS_DEWT_072009.nc | 27-Oct-2024 14:35 | 429915 | ||
| MLSC1_TS_DEWT_072011.nc | 27-Oct-2024 14:36 | 429908 | ||
| MLSC1_TS_DEWT_072012.nc | 27-Oct-2024 14:36 | 429895 | ||
| MLSC1_TS_DEWT_072013.nc | 27-Oct-2024 14:36 | 429912 | ||
| MLSC1_TS_DEWT_072015.nc | 27-Oct-2024 14:36 | 429912 | ||
| MLSC1_TS_DEWT_072016.nc | 27-Oct-2024 14:36 | 421313 | ||
| MLSC1_TS_DEWT_072019.nc | 27-Oct-2024 14:36 | 429883 | ||
| MLSC1_TS_DEWT_072020.nc | 27-Oct-2024 14:36 | 429904 | ||
| MLSC1_TS_DEWT_072021.nc | 27-Oct-2024 14:36 | 429013 | ||
| MLSC1_TS_DEWT_072022.nc | 27-Oct-2024 14:36 | 429915 | ||
| MLSC1_TS_DEWT_072023.nc | 27-Oct-2024 14:36 | 429994 | ||
| MLSC1_TS_DEWT_072025.nc | 01-Aug-2025 06:11 | 429918 | ||
| MLSC1_TS_DEWT_082009.nc | 27-Oct-2024 14:36 | 429795 | ||
| MLSC1_TS_DEWT_082010.nc | 27-Oct-2024 14:36 | 429911 | ||
| MLSC1_TS_DEWT_082012.nc | 27-Oct-2024 14:36 | 427664 | ||
| MLSC1_TS_DEWT_082013.nc | 27-Oct-2024 14:36 | 429885 | ||
| MLSC1_TS_DEWT_082015.nc | 27-Oct-2024 14:36 | 3701319 | ||
| MLSC1_TS_DEWT_082016.nc | 27-Oct-2024 14:37 | 429359 | ||
| MLSC1_TS_DEWT_082019.nc | 27-Oct-2024 14:37 | 429361 | ||
| MLSC1_TS_DEWT_082020.nc | 27-Oct-2024 14:37 | 429370 | ||
| MLSC1_TS_DEWT_082021.nc | 27-Oct-2024 14:37 | 429365 | ||
| MLSC1_TS_DEWT_082022.nc | 27-Oct-2024 14:37 | 429363 | ||
| MLSC1_TS_DEWT_082023.nc | 27-Oct-2024 14:37 | 429364 | ||
| MLSC1_TS_DEWT_082025.nc | 01-Sep-2025 07:40 | 429363 | ||
| MLSC1_TS_DEWT_092010.nc | 27-Oct-2024 14:37 | 429388 | ||
| MLSC1_TS_DEWT_092011.nc | 27-Oct-2024 14:37 | 429380 | ||
| MLSC1_TS_DEWT_092012.nc | 27-Oct-2024 14:37 | 429553 | ||
| MLSC1_TS_DEWT_092013.nc | 27-Oct-2024 14:37 | 429568 | ||
| MLSC1_TS_DEWT_092015.nc | 27-Oct-2024 14:37 | 421004 | ||
| MLSC1_TS_DEWT_092016.nc | 27-Oct-2024 14:37 | 429338 | ||
| MLSC1_TS_DEWT_092019.nc | 27-Oct-2024 14:37 | 429568 | ||
| MLSC1_TS_DEWT_092020.nc | 27-Oct-2024 14:37 | 428693 | ||
| MLSC1_TS_DEWT_092021.nc | 27-Oct-2024 14:38 | 429566 | ||
| MLSC1_TS_DEWT_092022.nc | 27-Oct-2024 14:38 | 429568 | ||
| MLSC1_TS_DEWT_092025.nc | 02-Oct-2025 05:22 | 429570 | ||
| MLSC1_TS_DEWT_102008.nc | 27-Oct-2024 14:38 | 429564 | ||
| MLSC1_TS_DEWT_102009.nc | 27-Oct-2024 14:38 | 429550 | ||
| MLSC1_TS_DEWT_102010.nc | 27-Oct-2024 14:38 | 429571 | ||
| MLSC1_TS_DEWT_102011.nc | 27-Oct-2024 14:38 | 424299 | ||
| MLSC1_TS_DEWT_102012.nc | 27-Oct-2024 14:38 | 429700 | ||
| MLSC1_TS_DEWT_102013.nc | 27-Oct-2024 14:38 | 429690 | ||
| MLSC1_TS_DEWT_102015.nc | 27-Oct-2024 14:38 | 429369 | ||
| MLSC1_TS_DEWT_102016.nc | 27-Oct-2024 14:38 | 429693 | ||
| MLSC1_TS_DEWT_102019.nc | 27-Oct-2024 14:38 | 429687 | ||
| MLSC1_TS_DEWT_102020.nc | 27-Oct-2024 14:38 | 429686 | ||
| MLSC1_TS_DEWT_102021.nc | 27-Oct-2024 14:38 | 429694 | ||
| MLSC1_TS_DEWT_102022.nc | 27-Oct-2024 14:39 | 429694 | ||
| MLSC1_TS_DEWT_102023.nc | 27-Oct-2024 14:39 | 423762 | ||
| MLSC1_TS_DEWT_102025.nc | 15-Nov-2025 11:14 | 429910 | ||
| MLSC1_TS_DEWT_112008.nc | 27-Oct-2024 14:39 | 429910 | ||
| MLSC1_TS_DEWT_112009.nc | 27-Oct-2024 14:39 | 429774 | ||
| MLSC1_TS_DEWT_112010.nc | 27-Oct-2024 14:39 | 429910 | ||
| MLSC1_TS_DEWT_112011.nc | 27-Oct-2024 14:39 | 429907 | ||
| MLSC1_TS_DEWT_112012.nc | 27-Oct-2024 14:39 | 421007 | ||
| MLSC1_TS_DEWT_112013.nc | 27-Oct-2024 14:39 | 429541 | ||
| MLSC1_TS_DEWT_112015.nc | 27-Oct-2024 14:39 | 429886 | ||
| MLSC1_TS_DEWT_112016.nc | 27-Oct-2024 14:39 | 428555 | ||
| MLSC1_TS_DEWT_112018.nc | 27-Oct-2024 14:39 | 429912 | ||
| MLSC1_TS_DEWT_112019.nc | 27-Oct-2024 14:39 | 429532 | ||
| MLSC1_TS_DEWT_112020.nc | 27-Oct-2024 14:39 | 429915 | ||
| MLSC1_TS_DEWT_112021.nc | 27-Oct-2024 14:39 | 429908 | ||
| MLSC1_TS_DEWT_112022.nc | 27-Oct-2024 14:40 | 429917 | ||
| MLSC1_TS_DEWT_112023.nc | 27-Oct-2024 14:40 | 429234 | ||
| MLSC1_TS_DEWT_112024.nc | 17-Jan-2025 19:00 | 429910 | ||
| MLSC1_TS_DEWT_122008.nc | 27-Oct-2024 14:40 | 429366 | ||
| MLSC1_TS_DEWT_122009.nc | 27-Oct-2024 14:40 | 429365 | ||
| MLSC1_TS_DEWT_122010.nc | 27-Oct-2024 14:40 | 429372 | ||
| MLSC1_TS_DEWT_122011.nc | 27-Oct-2024 14:40 | 429040 | ||
| MLSC1_TS_DEWT_122012.nc | 27-Oct-2024 14:40 | 429360 | ||
| MLSC1_TS_DEWT_122015.nc | 27-Oct-2024 14:40 | 429368 | ||
| MLSC1_TS_DEWT_122016.nc | 27-Oct-2024 14:40 | 429368 | ||
| MLSC1_TS_DEWT_122018.nc | 27-Oct-2024 14:40 | 429355 | ||
| MLSC1_TS_DEWT_122019.nc | 27-Oct-2024 14:40 | 429363 | ||
| MLSC1_TS_DEWT_122020.nc | 27-Oct-2024 14:40 | 429565 | ||
| MLSC1_TS_DEWT_122021.nc | 27-Oct-2024 14:40 | 429571 | ||
| MLSC1_TS_DEWT_122022.nc | 27-Oct-2024 14:40 | 429568 | ||
| MLSC1_TS_DEWT_122023.nc | 27-Oct-2024 14:40 | 427974 | ||
| MLSC1_TS_DEWT_122024.nc | 22-Jan-2025 19:15 | 429571 | ||